Terminal Aerodrome Forecast
Issued by NWS

Home | Current Version | Previous Version | Text Only | Print | Product List | Glossary On
Versions: 1 2 3 4 5 6 7 8 9 10 11 12 13 14 15 16
179
FTUS41 KCAR 042205 AAA
TAFFVE
TAF AMD
KFVE 042205Z 0422/0518 32008KT P6SM SCT015
      TEMPO 0422/0424 BKN015
     FM050000 32006KT P6SM SCT040=

USA.gov is the U.S. government's official web portal to all federal, state and local government web resources and services.